Time;durP1;ratioP1;P1;durP2;ratioP2;P2;SDS_P1;SDS_P2;PMS_P1;PMS_P2;Temp;Humidity;BMP_temperature;BMP_pressure;BME280_temperature;BME280_humidity;BME280_pressure;Samples;Min_cycle;Max_cycle;Signal;HPM_P1;HPM_P2
2022/05/31 00:00:24;;;;;;;2.27;1.43;;;;;;;13.48;50.88;97661.31;8465667;28;20517;-76
2022/05/31 00:04:28;;;;;;;2.63;1.77;;;;;;;13.33;51.13;97668.28;8449715;28;20230;-77
2022/05/31 00:08:32;;;;;;;1.57;1.47;;;;;;;13.25;51.13;97662.66;8449734;28;20282;-76
2022/05/31 00:12:35;;;;;;;1.90;1.60;;;;;;;13.26;50.84;97661.72;8449362;28;20238;-76
2022/05/31 00:16:40;;;;;;;2.40;1.63;;;;;;;13.15;51.22;97661.53;8449577;28;20234;-76
2022/05/31 00:20:42;;;;;;;2.00;1.50;;;;;;;13.14;51.41;97654.69;8449264;28;20532;-76
2022/05/31 00:24:46;;;;;;;2.90;1.80;;;;;;;13.12;51.32;97659.97;8449295;28;20230;-77
2022/05/31 00:28:49;;;;;;;3.47;1.60;;;;;;;13.22;50.93;97657.66;8449214;28;20222;-77
2022/05/31 00:32:53;;;;;;;2.70;1.90;;;;;;;13.09;50.94;97665.34;8448902;28;20222;-77
2022/05/31 00:36:57;;;;;;;1.70;1.60;;;;;;;13.05;51.38;97659.47;8448520;28;20427;-76
2022/05/31 00:41:24;;;;;;;2.47;1.70;;;;;;;12.97;51.45;97656.50;8448660;28;20218;-76
2022/05/31 00:45:39;;;;;;;2.53;1.63;;;;;;;12.88;51.29;97668.25;8447893;28;20238;-76
2022/05/31 00:49:47;;;;;;;2.20;1.50;;;;;;;12.83;51.29;97659.91;8448507;28;20238;-76
2022/05/31 00:53:53;;;;;;;2.00;1.60;;;;;;;12.76;51.48;97665.56;8448201;28;20226;-76
2022/05/31 00:58:01;;;;;;;3.60;1.70;;;;;;;12.88;51.20;97667.44;8448174;28;20229;-76
2022/05/31 01:02:04;;;;;;;3.77;1.50;;;;;;;12.74;51.80;97670.84;8447988;28;20513;-77
2022/05/31 01:06:10;;;;;;;3.83;1.67;;;;;;;12.70;51.86;97667.59;8447699;28;20233;-77
2022/05/31 01:10:14;;;;;;;2.60;1.70;;;;;;;12.68;51.77;97672.03;8447931;28;20226;-76
2022/05/31 01:14:17;;;;;;;1.97;1.50;;;;;;;12.71;51.74;97674.44;8447583;28;20230;-77
2022/05/31 01:18:20;;;;;;;2.93;1.33;;;;;;;12.63;52.16;97681.00;8447551;28;20226;-77
2022/05/31 01:22:33;;;;;;;3.23;1.83;;;;;;;12.45;52.07;97670.75;8447052;28;20221;-76
2022/05/31 01:26:41;;;;;;;2.47;1.60;;;;;;;12.56;52.18;97677.09;8447299;28;20229;-76
2022/05/31 01:30:47;;;;;;;3.97;1.77;;;;;;;12.57;52.02;97666.63;8447441;28;20226;-76
2022/05/31 01:34:55;;;;;;;1.60;1.50;;;;;;;12.41;52.07;97664.03;8447509;28;20225;-76
2022/05/31 01:39:06;;;;;;;1.87;1.40;;;;;;;12.48;52.09;97659.34;8447188;28;20547;-76
2022/05/31 01:43:08;;;;;;;1.63;1.30;;;;;;;12.35;52.26;97655.78;8447231;28;20410;-77
2022/05/31 01:47:13;;;;;;;1.50;1.40;;;;;;;12.28;52.80;97658.72;8447049;28;20406;-76
2022/05/31 01:51:16;;;;;;;2.93;1.40;;;;;;;12.43;52.41;97658.75;8447063;28;20226;-76
2022/05/31 01:55:21;;;;;;;3.53;1.43;;;;;;;12.27;52.83;97662.22;8446637;28;20233;-76
2022/05/31 01:59:25;;;;;;;4.07;1.63;;;;;;;12.33;52.55;97664.47;8446585;28;20513;-76
2022/05/31 02:03:28;;;;;;;3.93;1.73;;;;;;;12.30;52.20;97656.88;8446794;28;20230;-76
2022/05/31 02:07:31;;;;;;;3.67;1.70;;;;;;;12.29;51.68;97657.78;8446739;28;20403;-76
2022/05/31 02:11:36;;;;;;;2.30;1.40;;;;;;;12.17;51.99;97666.25;8446594;28;20237;-76
2022/05/31 02:15:39;;;;;;;2.03;1.70;;;;;;;12.16;52.14;97655.97;8447021;28;20242;-76
2022/05/31 02:19:43;;;;;;;2.10;1.60;;;;;;;12.08;52.30;97654.63;8453382;28;20261;-77
2022/05/31 02:23:46;;;;;;;1.60;1.50;;;;;;;12.10;52.40;97663.16;8453167;28;20226;-76
2022/05/31 02:27:50;;;;;;;1.87;1.50;;;;;;;12.08;52.73;97667.59;8452943;28;20237;-76
2022/05/31 02:31:54;;;;;;;2.40;1.60;;;;;;;12.03;52.38;97667.03;8452835;28;20234;-76
2022/05/31 02:35:57;;;;;;;2.13;1.50;;;;;;;12.04;52.22;97666.09;8452847;28;20348;-76
2022/05/31 02:40:00;;;;;;;1.97;1.60;;;;;;;11.96;52.64;97660.50;8452718;28;20426;-76
2022/05/31 02:44:05;;;;;;;2.53;1.57;;;;;;;11.89;52.58;97661.72;8452462;28;20226;-77
2022/05/31 02:48:09;;;;;;;3.30;1.70;;;;;;;11.97;52.34;97653.53;8452194;28;20230;-76
2022/05/31 02:52:11;;;;;;;2.20;1.50;;;;;;;11.90;52.25;97653.06;8452029;28;20240;-76
2022/05/31 02:56:14;;;;;;;2.47;1.80;;;;;;;11.80;52.67;97651.84;8452084;28;20237;-77
2022/05/31 03:00:19;;;;;;;1.70;1.60;;;;;;;11.81;52.66;97656.94;8451987;28;20422;-76
2022/05/31 03:04:22;;;;;;;4.53;1.80;;;;;;;11.72;52.72;97652.25;8451381;28;20517;-76
2022/05/31 03:08:25;;;;;;;2.43;1.70;;;;;;;11.65;52.63;97656.94;8451894;28;20236;-77
2022/05/31 03:12:29;;;;;;;2.23;1.70;;;;;;;11.68;52.71;97653.34;8451107;28;20238;-76
2022/05/31 03:16:33;;;;;;;3.67;1.60;;;;;;;11.66;52.48;97653.41;8451426;28;20306;-76
2022/05/31 03:20:40;;;;;;;2.00;1.80;;;;;;;11.62;52.21;97653.69;8451399;28;20239;-76
2022/05/31 03:24:48;;;;;;;3.27;1.97;;;;;;;11.71;51.91;97663.56;8451306;28;20423;-76
2022/05/31 03:28:51;;;;;;;2.13;1.87;;;;;;;11.71;52.03;97663.56;8449737;28;20225;-76
2022/05/31 03:32:57;;;;;;;3.47;1.93;;;;;;;11.71;51.72;97667.00;8451055;28;20230;-77
2022/05/31 03:37:00;;;;;;;3.27;1.93;;;;;;;11.59;52.19;97659.84;8450693;28;20230;-77
2022/05/31 03:41:03;;;;;;;4.47;2.10;;;;;;;11.40;52.79;97656.56;8450737;28;20222;-76
2022/05/31 03:45:08;;;;;;;2.83;2.03;;;;;;;11.66;52.25;97663.78;8450470;28;20513;-76
2022/05/31 03:49:12;;;;;;;2.57;2.10;;;;;;;11.62;51.81;97658.88;8450440;28;20218;-77
2022/05/31 03:53:15;;;;;;;2.00;1.83;;;;;;;11.58;52.44;97655.59;8450560;28;20267;-77
2022/05/31 03:57:20;;;;;;;2.53;1.90;;;;;;;11.61;52.23;97659.78;8450239;28;20234;-76
2022/05/31 04:01:23;;;;;;;3.33;2.00;;;;;;;11.60;52.91;97660.72;8449542;28;20225;-75
2022/05/31 04:05:27;;;;;;;2.03;1.80;;;;;;;11.70;52.92;97667.91;8449861;28;20528;-76
2022/05/31 04:09:31;;;;;;;2.37;2.10;;;;;;;11.68;52.67;97667.13;8449732;28;20232;-76
2022/05/31 04:13:34;;;;;;;2.60;1.83;;;;;;;11.55;53.32;97664.34;8449183;28;20234;-76
2022/05/31 04:17:37;;;;;;;3.07;1.93;;;;;;;11.64;53.68;97675.19;8449508;28;20232;-76
2022/05/31 04:21:41;;;;;;;3.37;2.10;;;;;;;11.60;53.44;97673.69;8449403;28;20230;-76
2022/05/31 04:25:45;;;;;;;3.57;1.87;;;;;;;11.69;53.72;97671.41;8448978;28;20237;-76
2022/05/31 04:29:48;;;;;;;2.30;2.10;;;;;;;11.70;53.76;97672.25;8448827;28;20513;-76
2022/05/31 04:33:51;;;;;;;5.63;2.20;;;;;;;11.83;53.52;97673.28;8449248;28;20232;-76
2022/05/31 04:37:55;;;;;;;3.67;2.10;;;;;;;11.85;54.03;97678.38;8449020;28;20551;-76
2022/05/31 04:41:58;;;;;;;4.60;2.40;;;;;;;12.05;53.69;97682.50;8448580;28;20442;-84
2022/05/31 04:46:09;;;;;;;2.87;2.20;;;;;;;12.21;53.23;97680.75;8448711;28;20287;-84
2022/05/31 04:50:13;;;;;;;3.67;2.20;;;;;;;12.19;54.31;97680.00;8448461;28;20340;-79
2022/05/31 04:54:17;;;;;;;5.60;3.60;;;;;;;12.27;54.13;97669.19;8448308;28;20229;-79
2022/05/31 04:58:20;;;;;;;5.37;2.53;;;;;;;12.47;53.79;97673.25;8448180;28;20237;-80
2022/05/31 05:02:23;;;;;;;3.83;2.40;;;;;;;12.55;54.12;97662.44;8464537;28;20222;-80
2022/05/31 05:06:26;;;;;;;3.20;2.60;;;;;;;12.32;54.56;97660.22;8446827;28;20237;-79
2022/05/31 05:10:32;;;;;;;4.67;2.70;;;;;;;12.16;55.67;97651.59;8447959;28;20226;-80
2022/05/31 05:14:35;;;;;;;3.80;2.50;;;;;;;12.10;56.20;97660.56;8447713;28;20422;-79
2022/05/31 05:18:39;;;;;;;4.53;2.67;;;;;;;11.90;57.44;97658.25;8447722;28;20536;-79
2022/05/31 05:22:42;;;;;;;4.13;2.50;;;;;;;12.22;56.60;97653.00;8447540;28;20238;-81
2022/05/31 05:26:47;;;;;;;2.90;2.60;;;;;;;11.92;57.41;97646.84;8447303;28;20251;-80
2022/05/31 05:30:50;;;;;;;5.10;3.00;;;;;;;11.99;57.83;97652.53;8447155;28;20222;-81
2022/05/31 05:34:54;;;;;;;4.00;2.60;;;;;;;12.22;56.74;97640.03;8447535;28;20225;-79
2022/05/31 05:38:58;;;;;;;3.93;2.53;;;;;;;12.41;56.71;97645.84;8447297;28;20233;-81
2022/05/31 05:43:02;;;;;;;7.23;2.90;;;;;;;12.33;57.40;97641.09;8447221;28;20233;-80
2022/05/31 05:47:06;;;;;;;4.20;2.63;;;;;;;12.90;55.38;97637.81;8446852;28;20236;-81
2022/05/31 05:51:14;;;;;;;7.00;2.83;;;;;;;12.84;55.75;97640.78;8445727;28;20245;-81
2022/05/31 05:55:17;;;;;;;4.70;2.80;;;;;;;12.69;56.16;97626.09;8447004;28;20415;-80
2022/05/31 05:59:21;;;;;;;5.83;2.80;;;;;;;12.99;55.78;97617.44;8446604;28;20229;-80
2022/05/31 06:03:27;;;;;;;3.27;2.70;;;;;;;13.04;55.47;97620.56;8479946;28;20221;-81
2022/05/31 06:07:32;;;;;;;4.30;2.57;;;;;;;13.25;55.13;97626.25;8480467;28;20225;-81
2022/05/31 06:11:37;;;;;;;6.23;2.33;;;;;;;13.56;54.94;97616.63;8480528;28;20414;-81
2022/05/31 06:15:48;;;;;;;4.63;3.07;;;;;;;13.71;54.55;97617.41;8479989;28;20240;-81
2022/05/31 06:19:51;;;;;;;5.30;2.50;;;;;;;14.27;52.59;97619.00;8480313;28;20542;-80
2022/05/31 06:23:55;;;;;;;4.40;2.37;;;;;;;14.22;52.88;97621.09;8480228;28;20420;-81
2022/05/31 06:28:05;;;;;;;4.00;2.00;;;;;;;14.57;52.26;97614.53;8458054;28;20230;-80
2022/05/31 06:32:09;;;;;;;3.30;2.30;;;;;;;14.80;51.79;97613.81;8423268;28;20222;-81
2022/05/31 06:36:14;;;;;;;4.97;2.40;;;;;;;14.90;51.37;97611.44;8412917;28;20226;-81
2022/05/31 06:40:17;;;;;;;6.10;2.23;;;;;;;14.91;51.17;97609.66;8413025;28;20229;-80
2022/05/31 06:44:20;;;;;;;4.20;2.87;;;;;;;15.14;50.98;97614.16;8413065;28;20236;-81
2022/05/31 06:48:25;;;;;;;3.93;2.43;;;;;;;15.44;50.40;97619.03;8412121;28;20231;-80
2022/05/31 06:56:50;;;;;;;3.67;2.30;;;;;;;15.68;47.94;97618.25;8445657;28;20228;-78
2022/05/31 07:00:53;;;;;;;3.83;2.50;;;;;;;15.96;47.75;97624.97;8445810;28;20244;-80
2022/05/31 07:04:58;;;;;;;4.70;2.73;;;;;;;15.72;48.35;97619.69;8451316;28;20226;-81
2022/05/31 07:09:00;;;;;;;4.87;2.73;;;;;;;16.00;47.44;97625.59;8451585;28;20433;-81
2022/05/31 07:13:04;;;;;;;5.60;2.70;;;;;;;16.63;46.17;97620.16;8451389;28;20241;-80
2022/05/31 07:17:06;;;;;;;7.57;2.37;;;;;;;17.23;51.27;97624.38;8451137;28;20232;-79
2022/05/31 07:21:11;;;;;;;9.67;2.93;;;;;;;17.45;49.17;97623.50;8451008;28;20312;-78
2022/05/31 07:25:14;;;;;;;3.47;2.80;;;;;;;17.05;44.66;97625.75;8451313;28;20222;-86
2022/05/31 07:29:17;;;;;;;5.07;3.30;;;;;;;16.92;45.24;97626.69;8451125;28;20539;-77
2022/05/31 07:33:20;;;;;;;5.50;2.60;;;;;;;17.76;49.61;97611.47;8450468;28;20229;-78
2022/05/31 07:37:45;;;;;;;7.20;3.27;;;;;;;17.65;42.98;97610.63;8466689;28;20233;-78
2022/05/31 07:41:49;;;;;;;4.47;2.50;;;;;;;18.40;45.38;97607.25;8465261;28;20228;-79
2022/05/31 07:46:00;;;;;;;7.40;3.20;;;;;;;18.26;41.32;97602.31;8461854;28;20420;-79
2022/05/31 07:50:03;;;;;;;9.30;2.90;;;;;;;18.40;41.51;97606.44;8428893;28;20229;-78
2022/05/31 07:54:08;;;;;;;7.10;3.03;;;;;;;19.02;40.98;97604.78;8450221;28;20395;-79
2022/05/31 08:02:31;;;;;;;6.53;2.87;;;;;;;18.91;40.99;97614.41;8416422;28;20529;-80
2022/05/31 08:06:35;;;;;;;5.10;2.90;;;;;;;19.14;41.25;97614.28;8448242;28;20496;-79
2022/05/31 08:10:40;;;;;;;5.87;3.30;;;;;;;19.29;40.81;97620.84;8449813;28;20222;-80
2022/05/31 08:14:43;;;;;;;4.70;3.07;;;;;;;19.52;40.07;97608.34;8448474;28;20221;-80
2022/05/31 08:18:46;;;;;;;4.80;3.00;;;;;;;18.56;41.62;97607.69;8450061;28;20230;-77
2022/05/31 08:22:49;;;;;;;6.20;3.27;;;;;;;19.03;39.67;97596.81;8449969;28;20389;-78
2022/05/31 08:26:54;;;;;;;4.80;3.23;;;;;;;18.88;41.58;97595.47;8449911;28;20233;-78
2022/05/31 08:30:58;;;;;;;7.73;3.63;;;;;;;19.40;40.05;97593.66;8449768;28;20230;-77
2022/05/31 08:35:01;;;;;;;11.47;3.43;;;;;;;19.21;40.00;97594.41;8449800;28;20228;-76
2022/05/31 08:39:10;;;;;;;13.37;3.97;;;;;;;19.57;39.36;97589.56;8449576;28;20230;-77
2022/05/31 08:43:18;;;;;;;4.60;2.77;;;;;;;20.46;38.08;97572.97;8448479;28;20226;-77
2022/05/31 08:47:25;;;;;;;5.30;2.80;;;;;;;20.74;36.96;97559.94;8448413;28;20260;-77
2022/05/31 08:51:55;;;;;;;5.83;2.67;;;;;;;20.78;36.77;97564.78;8447886;28;20231;-77
2022/05/31 09:00:28;;;;;;;4.37;2.27;;;;;;;21.03;34.96;97563.31;8448314;28;20491;-76
2022/05/31 09:04:36;;;;;;;3.77;2.20;;;;;;;21.58;34.90;97556.47;8448340;28;20410;-77
2022/05/31 09:08:42;;;;;;;3.63;1.87;;;;;;;21.74;33.90;97559.28;8448574;28;20226;-77
2022/05/31 09:12:49;;;;;;;4.57;2.43;;;;;;;22.11;33.62;97549.59;8448047;28;20236;-77
2022/05/31 09:16:58;;;;;;;5.93;2.17;;;;;;;22.27;32.02;97547.09;8447344;28;20233;-77
2022/05/31 09:21:04;;;;;;;3.33;1.80;;;;;;;21.74;30.91;97545.25;8448016;28;20349;-77
2022/05/31 09:25:07;;;;;;;3.37;1.70;;;;;;;21.89;30.67;97541.13;8447616;28;20226;-78
2022/05/31 09:29:15;;;;;;;6.33;1.90;;;;;;;22.59;29.49;97530.72;8448322;28;20230;-80
2022/05/31 09:33:23;;;;;;;4.10;1.60;;;;;;;22.58;29.10;97539.63;8446954;28;20225;-80
2022/05/31 09:37:40;;;;;;;4.47;1.90;;;;;;;22.65;28.11;97527.44;8434401;28;20229;-79
2022/05/31 09:41:47;;;;;;;2.40;1.53;;;;;;;22.77;27.93;97535.09;8447912;28;20245;-79
2022/05/31 09:45:55;;;;;;;2.90;1.20;;;;;;;22.50;27.33;97530.81;8447214;28;20226;-79
2022/05/31 09:49:59;;;;;;;3.13;1.20;;;;;;;22.83;27.85;97518.66;8446921;28;20232;-79
2022/05/31 09:58:24;;;;;;;2.17;1.20;;;;;;;23.69;24.62;97515.06;8447020;28;20222;-81
2022/05/31 10:02:35;;;;;;;3.60;1.10;;;;;;;23.61;22.63;97510.59;8446901;28;20229;-80
2022/05/31 10:06:54;;;;;;;2.50;1.27;;;;;;;23.98;23.16;97506.72;8447036;28;20234;-80
2022/05/31 10:10:57;;;;;;;4.20;1.63;;;;;;;23.46;23.76;97501.63;8446940;28;20253;-80
2022/05/31 10:15:03;;;;;;;5.07;1.40;;;;;;;23.46;23.88;97509.56;8446799;28;20234;-80
2022/05/31 10:19:09;;;;;;;4.50;1.37;;;;;;;23.83;23.25;97507.53;8446706;28;20453;-77
2022/05/31 10:23:21;;;;;;;3.60;1.40;;;;;;;24.13;23.83;97498.13;8443625;28;20402;-78
2022/05/31 10:27:28;;;;;;;2.63;1.10;;;;;;;23.27;25.02;97492.16;8459848;28;20556;-79
2022/05/31 10:31:37;;;;;;;4.83;1.20;;;;;;;23.81;23.84;97491.81;8463377;28;20416;-77
2022/05/31 10:35:43;;;;;;;4.33;1.40;;;;;;;24.05;23.20;97493.66;8462948;28;20268;-76
2022/05/31 10:40:00;;;;;;;2.77;1.10;;;;;;;24.19;23.58;97495.63;8452094;28;20226;-77
2022/05/31 10:44:07;;;;;;;2.63;1.30;;;;;;;22.97;25.95;97473.19;8436080;28;20289;-78
2022/05/31 10:48:10;;;;;;;2.77;1.17;;;;;;;22.90;25.48;97473.97;8433456;28;20228;-78
2022/05/31 10:52:22;;;;;;;3.00;1.53;;;;;;;22.88;24.55;97471.47;8427009;28;20249;-78
2022/05/31 10:56:32;;;;;;;3.87;1.47;;;;;;;23.15;24.40;97461.72;8438393;28;20519;-78
2022/05/31 11:00:39;;;;;;;2.43;1.10;;;;;;;23.88;24.09;97452.34;8452033;28;20429;-78
2022/05/31 11:04:56;;;;;;;5.03;1.10;;;;;;;23.54;23.68;97450.63;8451920;28;20234;-78
2022/05/31 11:14:01;;;;;;;3.37;1.20;;;;;;;24.32;22.89;97458.09;8368812;28;20235;-77
2022/05/31 11:18:33;;;;;;;5.23;1.27;;;;;;;23.42;24.20;97453.56;8460587;28;20423;-78
2022/05/31 11:22:48;;;;;;;2.87;1.23;;;;;;;23.61;25.23;97462.19;8461715;28;20524;-78
2022/05/31 11:26:59;;;;;;;2.27;1.40;;;;;;;23.48;24.24;97459.19;8468174;28;20230;-78
2022/05/31 11:31:23;;;;;;;4.00;1.30;;;;;;;24.05;24.10;97453.19;8452960;28;20230;-78
2022/05/31 11:35:39;;;;;;;4.07;1.43;;;;;;;23.71;24.29;97456.75;8450695;28;20233;-78
2022/05/31 11:39:53;;;;;;;4.97;1.60;;;;;;;23.15;24.95;97449.38;8450985;28;20249;-80
2022/05/31 11:44:19;;;;;;;3.53;1.20;;;;;;;23.06;25.94;97444.22;8450903;28;20222;-77
2022/05/31 11:48:43;;;;;;;2.20;1.10;;;;;;;22.85;26.31;97437.50;8448931;28;20560;-79
2022/05/31 11:53:00;;;;;;;2.60;1.30;;;;;;;23.32;25.62;97441.47;8434160;28;20405;-80
2022/05/31 11:57:23;;;;;;;4.27;1.23;;;;;;;24.08;24.98;97431.66;8433909;28;20233;-77
2022/05/31 12:01:30;;;;;;;2.27;1.30;;;;;;;23.37;25.56;97428.63;8433027;28;20221;-78
2022/05/31 12:05:38;;;;;;;7.13;1.40;;;;;;;22.62;26.08;97418.75;8444456;28;20228;-79
2022/05/31 12:09:45;;;;;;;3.37;1.30;;;;;;;22.79;26.65;97414.34;8449809;28;20233;-78
2022/05/31 12:13:48;;;;;;;3.83;1.10;;;;;;;23.33;25.60;97403.50;8449682;28;20236;-78
2022/05/31 12:17:55;;;;;;;4.13;1.30;;;;;;;22.70;26.04;97405.59;8449389;28;20222;-79
2022/05/31 12:22:06;;;;;;;6.37;1.20;;;;;;;22.60;26.70;97407.53;8449515;28;20233;-79
2022/05/31 12:26:19;;;;;;;5.07;1.30;;;;;;;22.71;26.55;97403.78;8449462;28;20236;-79
2022/05/31 12:30:25;;;;;;;3.97;1.30;;;;;;;23.20;25.38;97399.50;8482788;28;20228;-77
2022/05/31 12:34:46;;;;;;;3.83;1.20;;;;;;;22.90;25.88;97387.66;8483065;28;20232;-79
2022/05/31 12:39:01;;;;;;;3.30;1.40;;;;;;;22.77;26.16;97396.06;8482899;28;20545;-79
2022/05/31 12:43:05;;;;;;;1.50;1.07;;;;;;;23.03;26.14;97384.63;8479769;28;20237;-79
2022/05/31 12:47:15;;;;;;;4.23;1.10;;;;;;;22.33;26.10;97380.34;8459100;28;20462;-79
2022/05/31 12:51:24;;;;;;;1.77;1.10;;;;;;;22.32;26.87;97380.50;8448520;28;20458;-79
2022/05/31 12:55:57;;;;;;;1.60;1.10;;;;;;;22.82;26.04;97385.84;8447966;28;20225;-79
2022/05/31 12:59:59;;;;;;;8.63;1.40;;;;;;;22.52;26.28;97374.00;8435178;28;20247;-79
2022/05/31 13:04:26;;;;;;;5.40;1.20;;;;;;;22.27;27.22;97370.41;8448484;28;20229;-81
2022/05/31 13:08:51;;;;;;;2.23;1.10;;;;;;;22.21;27.13;97377.09;8448163;28;20300;-79
2022/05/31 13:21:41;;;;;;;2.40;1.10;;;;;;;21.78;27.90;97376.16;8447322;28;20614;-79
2022/05/31 13:25:56;;;;;;;4.47;1.20;;;;;;;21.74;27.83;97382.72;8447386;28;20297;-79
2022/05/31 13:30:09;;;;;;;3.47;1.20;;;;;;;21.79;28.67;97377.81;8447045;28;20232;-79
2022/05/31 13:34:12;;;;;;;3.57;1.50;;;;;;;21.72;28.35;97374.13;8447442;28;20432;-80
2022/05/31 13:38:29;;;;;;;2.37;1.20;;;;;;;22.15;28.02;97372.47;8445669;28;20406;-80
2022/05/31 13:42:37;;;;;;;3.30;1.50;;;;;;;21.97;28.73;97364.59;8481082;28;20475;-82
2022/05/31 13:46:43;;;;;;;3.90;1.30;;;;;;;22.04;29.04;97370.06;8480772;28;20244;-80
2022/05/31 13:50:58;;;;;;;3.73;1.50;;;;;;;21.92;28.93;97372.13;8477085;28;20226;-80
2022/05/31 13:55:09;;;;;;;4.10;1.40;;;;;;;21.81;29.48;97373.22;8463710;28;20230;-80
2022/05/31 13:59:12;;;;;;;3.30;1.40;;;;;;;22.12;30.26;97370.13;8445801;28;20398;-80
2022/05/31 14:03:22;;;;;;;2.93;1.30;;;;;;;21.88;31.60;97372.63;8446558;28;20233;-80
2022/05/31 14:07:31;;;;;;;2.33;1.20;;;;;;;21.84;31.38;97370.28;8479882;28;20231;-79
2022/05/31 14:11:36;;;;;;;3.60;1.33;;;;;;;22.09;30.98;97380.16;8480846;28;20236;-80
2022/05/31 14:15:44;;;;;;;5.87;1.30;;;;;;;22.37;31.86;97376.41;8487340;28;20284;-79
2022/05/31 14:19:49;;;;;;;3.23;1.43;;;;;;;22.23;31.28;97369.84;8486980;28;20229;-79
2022/05/31 14:23:53;;;;;;;2.40;1.43;;;;;;;22.54;31.10;97366.78;8487098;28;20229;-79
2022/05/31 14:27:56;;;;;;;3.27;1.77;;;;;;;22.79;31.37;97362.41;8486998;28;20225;-79
2022/05/31 14:32:22;;;;;;;4.43;1.70;;;;;;;22.88;32.16;97365.88;8486840;28;20231;-78
2022/05/31 14:36:39;;;;;;;3.47;1.30;;;;;;;22.82;30.54;97364.72;8452433;28;20248;-78
2022/05/31 14:40:42;;;;;;;7.47;1.50;;;;;;;22.64;31.68;97375.38;8452865;28;20242;-78
2022/05/31 14:44:50;;;;;;;3.50;1.40;;;;;;;22.96;31.62;97365.09;8451450;28;20409;-78
2022/05/31 14:49:05;;;;;;;4.17;1.43;;;;;;;23.20;31.35;97367.00;8450297;28;20493;-78
2022/05/31 14:53:17;;;;;;;3.85;1.40;;;;;;;23.15;32.22;97364.00;8449754;28;20422;-78
2022/05/31 14:57:23;;;;;;;2.80;1.40;;;;;;;23.27;31.94;97365.38;8451154;28;20433;-79
2022/05/31 15:01:30;;;;;;;4.57;1.50;;;;;;;22.72;33.59;97360.56;8459795;28;20237;-77
2022/05/31 15:05:33;;;;;;;4.97;1.30;;;;;;;22.73;34.40;97364.84;8451527;28;20227;-77
2022/05/31 15:09:38;;;;;;;3.93;1.30;;;;;;;22.57;34.72;97368.25;8451700;28;20556;-78
2022/05/31 15:22:27;;;;;;;3.20;1.13;;;;;;;21.86;31.35;97380.66;8484809;28;20232;-79
2022/05/31 15:26:32;;;;;;;4.00;1.50;;;;;;;21.79;30.71;97380.44;8485008;28;20231;-81
2022/05/31 15:30:35;;;;;;;3.63;1.30;;;;;;;21.64;29.89;97379.34;8484998;28;20239;-79
2022/05/31 15:34:58;;;;;;;3.67;1.10;;;;;;;21.68;29.41;97385.94;8470400;28;20539;-79
2022/05/31 15:39:01;;;;;;;4.07;1.50;;;;;;;21.52;28.46;97389.28;8464802;28;20236;-80
2022/05/31 15:43:05;;;;;;;3.43;1.60;;;;;;;21.49;28.44;97397.47;8467612;28;20236;-79
2022/05/31 15:47:08;;;;;;;2.27;1.40;;;;;;;21.52;28.32;97389.28;8467546;28;20232;-80
2022/05/31 15:51:20;;;;;;;3.87;1.40;;;;;;;21.52;28.03;97385.81;8459086;28;20233;-80
2022/05/31 15:55:26;;;;;;;4.30;1.30;;;;;;;21.50;27.77;97390.41;8450138;28;20225;-79
2022/05/31 15:59:33;;;;;;;4.83;1.47;;;;;;;21.42;27.84;97384.06;8449841;28;20228;-80
2022/05/31 16:03:36;;;;;;;5.30;1.17;;;;;;;21.44;27.60;97389.22;8449727;28;20244;-81
2022/05/31 16:07:42;;;;;;;2.70;1.10;;;;;;;21.47;27.38;97381.81;8449837;28;20280;-80
2022/05/31 16:11:45;;;;;;;5.87;1.60;;;;;;;21.54;27.08;97378.59;8449728;28;20245;-82
2022/05/31 16:15:49;;;;;;;4.13;1.23;;;;;;;21.53;26.86;97382.19;8448798;28;20237;-80
2022/05/31 16:19:52;;;;;;;1.70;1.10;;;;;;;21.42;26.96;97381.44;8449727;28;20237;-89
2022/05/31 16:23:55;;;;;;;2.13;1.10;;;;;;;21.47;27.26;97383.63;8449592;28;20235;-80
2022/05/31 16:27:59;;;;;;;4.70;1.20;;;;;;;21.44;27.62;97383.94;8449429;28;20228;-80
2022/05/31 16:32:09;;;;;;;4.03;1.50;;;;;;;21.51;27.77;97382.34;8448831;28;20409;-81
2022/05/31 16:36:17;;;;;;;3.57;2.07;;;;;;;21.61;27.42;97377.00;8456954;28;20228;-80
2022/05/31 16:44:38;;;;;;;3.03;1.40;;;;;;;21.52;27.09;97380.56;8415207;28;20232;-80
2022/05/31 16:48:42;;;;;;;2.47;1.20;;;;;;;21.45;26.72;97380.31;8431427;28;20231;-77
2022/05/31 16:52:45;;;;;;;1.67;1.10;;;;;;;21.51;26.87;97381.53;8482106;28;20522;-79
2022/05/31 16:56:51;;;;;;;3.50;1.37;;;;;;;21.64;26.03;97374.06;8482159;28;20228;-77
2022/05/31 17:00:54;;;;;;;4.17;1.20;;;;;;;21.62;26.13;97382.13;8481952;28;20229;-78
2022/05/31 17:04:58;;;;;;;4.67;1.60;;;;;;;21.63;26.61;97386.41;8481615;28;20227;-78
2022/05/31 17:17:42;;;;;;;2.23;1.40;;;;;;;21.36;26.06;97389.09;8481357;28;20235;-78
2022/05/31 17:21:47;;;;;;;2.03;1.10;;;;;;;21.44;26.62;97394.47;8481436;28;20518;-76
2022/05/31 17:25:53;;;;;;;2.70;1.33;;;;;;;21.40;26.39;97404.44;8481023;28;20225;-75
2022/05/31 17:29:55;;;;;;;3.77;1.40;;;;;;;21.48;26.53;97406.38;8481102;28;20227;-77
2022/05/31 17:34:18;;;;;;;4.13;1.30;;;;;;;21.50;26.73;97411.50;8481054;28;20244;-77
2022/05/31 17:38:26;;;;;;;4.33;1.20;;;;;;;21.51;26.89;97411.31;8481332;28;20233;-77
2022/05/31 17:42:29;;;;;;;5.27;1.30;;;;;;;21.37;27.11;97425.00;8513934;27;20234;-78
2022/05/31 17:46:32;;;;;;;2.07;1.10;;;;;;;21.46;27.04;97422.31;8514052;27;20232;-77
2022/05/31 17:50:35;;;;;;;3.00;1.20;;;;;;;21.46;26.81;97424.13;8514824;27;20270;-75
2022/05/31 17:54:39;;;;;;;4.67;1.20;;;;;;;21.47;27.21;97423.97;8514907;27;20228;-76
2022/05/31 17:58:43;;;;;;;3.27;1.37;;;;;;;21.44;27.15;97424.28;8514798;27;20243;-76
2022/05/31 18:02:46;;;;;;;2.50;1.40;;;;;;;21.40;27.31;97429.94;8504643;27;20229;-76
2022/05/31 18:06:49;;;;;;;3.13;1.30;;;;;;;21.37;27.63;97438.16;8446637;28;20233;-75
2022/05/31 18:10:54;;;;;;;2.33;1.37;;;;;;;21.29;27.82;97433.63;8446782;28;20228;-76
2022/05/31 18:14:56;;;;;;;3.30;1.70;;;;;;;21.26;28.21;97436.56;8460732;28;20228;-75
2022/05/31 18:18:59;;;;;;;3.97;1.70;;;;;;;21.23;28.13;97440.31;8480210;28;20254;-76
2022/05/31 18:23:02;;;;;;;1.87;1.20;;;;;;;21.18;28.31;97447.81;8480191;28;20403;-75
2022/05/31 18:27:10;;;;;;;2.80;1.47;;;;;;;21.06;28.46;97451.66;8480153;28;20231;-75
2022/05/31 18:31:16;;;;;;;4.30;1.47;;;;;;;20.93;28.88;97454.63;8480083;28;20240;-75
2022/05/31 18:35:22;;;;;;;2.37;1.43;;;;;;;20.92;28.74;97454.75;8480423;28;20256;-75
2022/05/31 18:43:43;;;;;;;3.77;1.33;;;;;;;20.76;29.33;97450.13;8459551;28;20226;-75
2022/05/31 18:47:46;;;;;;;4.23;1.30;;;;;;;20.64;30.16;97452.94;8446093;28;20229;-75
2022/05/31 18:51:49;;;;;;;3.27;1.30;;;;;;;20.56;30.08;97462.47;8446236;28;20239;-75
2022/05/31 18:55:52;;;;;;;3.87;1.27;;;;;;;20.44;31.08;97464.44;8446128;28;20228;-75
2022/05/31 18:59:57;;;;;;;4.50;1.40;;;;;;;20.39;30.75;97464.03;8450120;28;20219;-75
2022/05/31 19:04:00;;;;;;;2.50;1.40;;;;;;;20.28;31.64;97467.66;8451938;28;20226;-75
2022/05/31 19:08:04;;;;;;;2.80;1.60;;;;;;;20.16;31.81;97468.78;8452156;28;20227;-75
2022/05/31 19:12:07;;;;;;;4.23;1.70;;;;;;;20.11;32.49;97475.28;8451626;28;20230;-75
2022/05/31 19:16:12;;;;;;;2.13;1.40;;;;;;;20.05;32.02;97485.53;8451469;28;20233;-75
2022/05/31 19:20:16;;;;;;;5.43;1.50;;;;;;;19.94;32.67;97491.75;8451460;28;20228;-75
2022/05/31 19:24:18;;;;;;;3.43;1.50;;;;;;;19.88;32.86;97501.03;8451513;28;20231;-75
2022/05/31 19:28:22;;;;;;;4.00;1.60;;;;;;;19.76;33.71;97502.13;8451316;28;20226;-75
2022/05/31 19:32:28;;;;;;;2.63;1.60;;;;;;;19.66;34.31;97501.25;8476462;28;20321;-75
2022/05/31 19:36:32;;;;;;;5.50;1.63;;;;;;;19.62;34.27;97516.44;8484924;28;20233;-74
2022/05/31 19:40:35;;;;;;;4.87;1.90;;;;;;;19.54;34.64;97527.63;8484597;28;20407;-74
2022/05/31 19:44:38;;;;;;;6.50;1.50;;;;;;;19.44;35.58;97534.66;8457176;28;20302;-75
2022/05/31 19:48:42;;;;;;;2.53;1.57;;;;;;;19.31;35.59;97534.91;8450730;28;20228;-74
2022/05/31 19:52:47;;;;;;;5.10;1.83;;;;;;;19.21;36.54;97551.56;8450616;28;20238;-74
2022/05/31 19:56:50;;;;;;;5.50;1.70;;;;;;;19.00;36.87;97557.72;8450522;28;20236;-74
2022/05/31 20:00:53;;;;;;;3.47;1.70;;;;;;;19.05;36.59;97565.19;8449821;28;20556;-74
2022/05/31 20:04:58;;;;;;;3.00;1.67;;;;;;;18.94;37.41;97571.34;8449408;28;20428;-75
2022/05/31 20:13:22;;;;;;;2.47;1.47;;;;;;;18.86;37.31;97585.09;8449077;28;20411;-74
2022/05/31 20:17:25;;;;;;;4.60;1.50;;;;;;;18.84;37.93;97583.59;8449653;28;20230;-75
2022/05/31 20:21:30;;;;;;;3.43;2.00;;;;;;;18.75;38.53;97578.13;8449758;28;20424;-75